createdAt,value
2023-04-25T08:21:12.776Z,20.62
2023-04-25T08:21:23.806Z,20.64
2023-04-25T08:21:33.896Z,20.62
2023-04-25T08:26:17.097Z,20.34
2023-04-25T08:26:26.291Z,20.47
2023-04-25T08:30:31.969Z,21.69
2023-04-25T08:30:43.854Z,21.64
2023-04-25T08:30:54.139Z,21.64
2023-04-25T08:31:03.245Z,21.71
2023-04-25T08:31:13.313Z,21.59
2023-04-25T08:31:23.491Z,21.39
2023-04-25T08:31:33.595Z,21.21
2023-04-25T08:31:53.945Z,20.89
2023-04-25T08:32:03.880Z,20.76
2023-04-25T08:32:14.173Z,20.56
2023-04-25T08:32:24.218Z,20.43
2023-04-25T08:32:35.294Z,20.35
2023-04-25T08:32:45.202Z,20.27
2023-04-25T08:32:54.720Z,20.25
2023-04-25T08:33:04.796Z,20.18
2023-04-25T08:33:15.025Z,20.12
2023-04-25T08:33:25.738Z,20.08
2023-04-25T08:33:45.170Z,20.00
2023-04-25T08:33:55.373Z,19.94
2023-04-25T08:34:05.420Z,19.88
2023-04-25T08:34:15.569Z,19.79
2023-04-25T08:34:25.764Z,19.72
2023-04-25T08:34:35.927Z,19.66
2023-04-25T08:34:45.970Z,19.61
2023-04-25T08:34:56.097Z,19.57
2023-04-25T08:35:06.156Z,19.53
2023-04-25T08:35:16.387Z,19.53
2023-04-25T08:35:26.556Z,19.51
2023-04-25T08:35:36.647Z,19.51
2023-04-25T08:35:46.862Z,19.50
2023-04-25T08:35:57.011Z,19.50
2023-04-25T08:36:08.288Z,19.50
2023-04-25T08:36:24.483Z,19.55
2023-04-25T08:36:40.935Z,19.51
2023-04-25T08:36:46.897Z,19.57
2023-04-25T08:36:57.066Z,19.58
2023-04-25T08:37:07.164Z,19.55
2023-04-25T08:37:17.238Z,19.47
2023-04-25T08:37:27.421Z,19.39
2023-04-25T08:37:47.755Z,19.33
2023-04-25T08:37:57.892Z,19.32
2023-04-25T08:38:07.951Z,19.35
2023-04-25T08:38:18.185Z,19.35
2023-04-25T08:38:28.212Z,19.33
2023-04-25T08:38:38.258Z,19.31
2023-04-25T08:38:48.502Z,19.25
2023-04-25T08:38:58.666Z,19.25
2023-04-25T08:39:09.643Z,19.25
2023-04-25T08:39:20.454Z,19.21
2023-04-25T08:39:29.034Z,19.23
2023-04-25T08:39:39.175Z,19.18
2023-04-25T08:39:49.200Z,19.18
2023-04-25T08:39:59.324Z,19.13
2023-04-25T08:40:19.574Z,19.05
2023-04-25T08:40:29.711Z,19.05
2023-04-25T08:40:39.743Z,19.05
2023-04-25T08:40:49.882Z,19.06
2023-04-25T08:41:00.048Z,19.15
2023-04-25T08:41:10.157Z,19.23
2023-04-25T08:41:20.357Z,19.31
2023-04-25T08:41:30.418Z,19.33
2023-04-25T08:41:40.453Z,19.31
2023-04-25T08:41:50.634Z,19.35
2023-04-25T08:42:00.830Z,19.35
2023-04-25T08:42:10.955Z,19.35
2023-04-25T08:42:20.932Z,19.36
2023-04-25T08:42:31.189Z,19.33
2023-04-25T08:42:41.387Z,19.28
2023-04-25T08:42:51.379Z,19.25
2023-04-25T08:43:01.544Z,19.25
2023-04-25T08:43:12.740Z,19.31
2023-04-25T08:43:21.755Z,19.36
2023-04-25T08:43:31.958Z,19.43
2023-04-25T08:43:42.264Z,19.55
2023-04-25T08:43:52.207Z,19.66
2023-04-25T08:44:02.455Z,19.76
2023-04-25T08:44:22.666Z,20.03
2023-04-25T08:44:32.687Z,20.15
2023-04-25T08:44:42.756Z,20.30
2023-04-25T08:44:52.933Z,20.42
2023-04-25T08:45:04.759Z,20.50
2023-04-25T08:45:13.266Z,20.53
2023-04-25T08:45:23.207Z,20.61
2023-04-25T08:45:33.287Z,20.66
2023-04-25T08:45:43.562Z,20.72
2023-04-25T08:45:53.537Z,20.77
2023-04-25T08:46:03.584Z,20.83
2023-04-25T08:46:13.790Z,20.90
2023-04-25T08:46:23.875Z,20.90
2023-04-25T08:46:34.090Z,20.98
2023-04-25T08:46:44.175Z,20.99
2023-04-25T08:46:55.202Z,20.99
2023-04-25T08:47:04.452Z,21.01
2023-04-25T08:47:14.696Z,21.02
2023-04-25T08:47:24.808Z,21.01
2023-04-25T08:47:34.920Z,20.98
2023-04-25T08:47:45.033Z,21.01
2023-04-25T08:48:05.219Z,20.89
2023-04-25T08:48:15.423Z,20.80
2023-04-25T08:48:25.541Z,20.72
2023-04-25T08:48:35.659Z,20.69
2023-04-25T08:48:45.733Z,20.72
2023-04-25T08:51:13.723Z,20.69
2023-04-25T08:51:20.184Z,21.35
2023-04-25T08:51:29.732Z,21.44
2023-04-25T08:51:39.917Z,21.50
2023-04-25T08:51:50.139Z,21.53
2023-04-25T08:52:00.329Z,21.61
2023-04-25T08:52:20.511Z,21.76
2023-04-25T08:52:30.630Z,21.81
2023-04-25T08:52:40.745Z,21.91
2023-04-25T08:52:50.783Z,21.99
2023-04-25T08:53:00.923Z,22.04
2023-04-25T08:53:11.021Z,22.06
2023-04-25T08:53:21.132Z,22.09
2023-04-25T08:53:31.499Z,22.12
2023-04-25T08:53:41.442Z,22.19
2023-04-25T08:53:54.351Z,22.27
2023-04-25T08:54:10.394Z,22.32
2023-04-25T08:54:34.981Z,22.41
2023-04-25T08:54:42.243Z,22.59
2023-04-25T08:54:48.242Z,22.74
2023-04-25T08:54:58.311Z,22.84
2023-04-25T08:55:08.442Z,22.94
2023-04-25T08:55:18.620Z,23.05
2023-04-25T08:55:28.688Z,23.14
2023-04-25T08:55:48.984Z,23.39
2023-04-25T08:55:59.052Z,23.49
2023-04-25T08:56:09.154Z,23.58
2023-04-25T08:56:19.316Z,23.70
2023-04-25T08:56:30.627Z,23.76
2023-04-25T08:56:39.631Z,23.89
2023-04-25T08:56:50.588Z,24.00
2023-04-25T08:56:59.835Z,24.05
2023-04-25T08:57:09.894Z,24.19
2023-04-25T08:57:21.140Z,24.27
2023-04-25T08:57:30.185Z,24.38
2023-04-25T08:57:40.279Z,24.42
2023-04-25T08:58:00.508Z,24.50
2023-04-25T08:58:10.707Z,24.53
2023-04-25T08:58:20.798Z,24.57
2023-04-25T08:58:30.923Z,24.60
2023-04-25T08:58:41.157Z,24.61
2023-04-25T08:58:51.386Z,24.61
2023-04-25T08:59:01.441Z,24.56
2023-04-25T08:59:11.423Z,24.56
2023-04-25T08:59:21.665Z,24.52
2023-04-25T08:59:31.787Z,24.53
2023-04-25T08:59:41.783Z,24.50
2023-04-25T08:59:51.858Z,24.47
2023-04-25T09:00:02.061Z,24.47
2023-04-25T09:00:12.145Z,24.42
2023-04-25T09:00:22.279Z,24.41
2023-04-25T09:00:32.521Z,24.42
2023-04-25T09:00:42.659Z,24.42
2023-04-25T09:00:52.892Z,24.45
2023-04-25T09:01:02.895Z,24.49
2023-04-25T09:01:13.021Z,24.45
2023-04-25T09:01:23.168Z,24.49
2023-04-25T09:01:33.380Z,24.50
2023-04-25T09:01:43.485Z,24.56
2023-04-25T09:01:53.668Z,24.56
2023-04-25T09:02:03.786Z,24.59
2023-04-25T09:02:14.890Z,24.56
2023-04-25T09:02:24.066Z,24.53
2023-04-25T09:02:34.357Z,24.49
2023-04-25T09:02:44.587Z,24.52
2023-04-25T09:02:54.628Z,24.44
2023-04-25T09:03:04.737Z,24.41
2023-04-25T09:03:24.925Z,24.45
2023-04-25T09:03:35.795Z,24.44
2023-04-25T09:03:45.070Z,24.41
2023-04-25T09:03:56.157Z,24.39
2023-04-25T09:04:05.309Z,24.35
2023-04-25T09:04:15.458Z,24.32
2023-04-25T09:04:25.368Z,24.34
2023-04-25T09:04:45.612Z,24.35
2023-04-25T09:04:55.857Z,24.34
2023-04-25T09:05:05.921Z,24.31
2023-04-25T09:05:16.297Z,24.26
2023-04-25T09:05:26.203Z,24.26
2023-04-25T09:05:36.352Z,24.23
2023-04-25T09:05:46.366Z,24.20
2023-04-25T09:05:56.541Z,24.17
2023-04-25T09:06:06.633Z,24.14
2023-04-25T09:06:16.805Z,24.13
2023-04-25T09:06:26.872Z,24.17
2023-04-25T09:06:36.997Z,24.22
2023-04-25T09:06:47.053Z,24.31
2023-04-25T09:06:57.198Z,24.32
2023-04-25T09:07:07.328Z,24.37
2023-04-25T09:07:17.567Z,24.39
2023-04-25T09:07:27.557Z,24.49
2023-04-25T09:07:37.778Z,24.59
2023-04-25T09:07:50.457Z,24.68
2023-04-25T09:07:58.036Z,24.68
2023-04-25T09:08:08.115Z,24.82
2023-04-25T09:08:18.272Z,24.91
2023-04-25T09:08:31.168Z,24.98
2023-04-25T09:08:38.509Z,25.06
2023-04-25T09:08:58.723Z,25.24
2023-04-25T09:09:08.974Z,25.31
2023-04-25T09:09:19.026Z,25.31
2023-04-25T09:09:29.098Z,25.37
2023-04-25T09:09:39.221Z,25.46
2023-04-25T09:09:49.359Z,25.52
2023-04-25T09:09:59.559Z,25.53
2023-04-25T09:10:09.573Z,25.56
2023-04-25T09:10:19.731Z,25.65
2023-04-25T09:10:29.791Z,25.71
2023-04-25T09:10:39.968Z,25.77
2023-04-25T09:10:50.178Z,25.87
2023-04-25T09:11:00.263Z,25.93
2023-04-25T09:11:10.379Z,25.98
2023-04-25T09:11:21.779Z,26.01
2023-04-25T09:11:30.783Z,26.04
2023-04-25T09:11:40.838Z,26.11
2023-04-25T09:11:50.891Z,26.17
2023-04-25T09:12:01.130Z,26.24
2023-04-25T09:12:11.216Z,26.27
2023-04-25T09:12:21.536Z,26.31
2023-04-25T09:12:31.412Z,26.36
2023-04-25T09:12:41.600Z,26.40
2023-04-25T09:12:51.877Z,26.47
2023-04-25T09:13:01.820Z,26.46
2023-04-25T09:13:11.977Z,26.49
2023-04-25T09:13:22.184Z,26.57
2023-04-25T09:13:32.160Z,26.58
2023-04-25T09:13:42.451Z,26.57
2023-04-25T09:13:52.752Z,26.55
2023-04-25T09:14:02.574Z,26.44
2023-04-25T09:14:12.648Z,26.32
2023-04-25T09:14:22.912Z,26.21
2023-04-25T09:14:32.922Z,26.04
2023-04-25T09:14:43.748Z,25.89
2023-04-25T09:14:53.135Z,25.75
2023-04-25T09:15:03.239Z,25.64
2023-04-25T09:15:13.328Z,25.50
2023-04-25T09:15:25.514Z,25.35
2023-04-25T09:15:33.900Z,25.19
2023-04-25T09:15:44.134Z,25.07
2023-04-25T09:15:54.185Z,24.91
2023-04-25T09:16:04.379Z,24.75
2023-04-25T09:16:14.512Z,24.59
2023-04-25T09:16:36.772Z,24.26
2023-04-25T09:16:45.589Z,24.13
2023-04-25T09:16:55.254Z,23.97
2023-04-25T09:17:05.495Z,23.82
